createdAt,value
2023-07-31T00:02:05.543Z,10.43
2023-07-31T00:04:32.110Z,8.02
2023-07-31T00:06:58.669Z,8.05
2023-07-31T00:09:26.547Z,10.52
2023-07-31T00:11:53.101Z,10.73
2023-07-31T00:14:19.660Z,9.35
2023-07-31T00:16:46.234Z,13.13
2023-07-31T00:19:12.856Z,9.88
2023-07-31T00:21:39.448Z,8.93
2023-07-31T00:24:06.172Z,14.02
2023-07-31T00:26:34.049Z,10.20
2023-07-31T00:29:00.592Z,10.13
2023-07-31T00:31:27.188Z,9.75
2023-07-31T00:33:53.779Z,7.95
2023-07-31T00:36:20.348Z,9.90
2023-07-31T00:38:46.901Z,14.48
2023-07-31T00:41:13.480Z,13.20
2023-07-31T00:43:41.393Z,8.63
2023-07-31T00:46:08.329Z,6.85
2023-07-31T00:48:36.071Z,9.98
2023-07-31T00:51:02.678Z,10.35
2023-07-31T00:53:29.278Z,8.10
2023-07-31T00:55:55.913Z,10.63
2023-07-31T00:58:22.514Z,8.57
2023-07-31T01:00:50.475Z,6.95
2023-07-31T01:03:17.429Z,7.70
2023-07-31T01:05:51.480Z,14.00
2023-07-31T01:08:25.303Z,14.50
2023-07-31T01:10:56.899Z,7.55
2023-07-31T01:13:24.225Z,6.68
2023-07-31T01:15:52.122Z,8.73
2023-07-31T01:18:18.666Z,10.35
2023-07-31T01:20:55.194Z,13.07
2023-07-31T01:23:36.437Z,5.50
2023-07-31T01:26:10.478Z,12.05
2023-07-31T01:28:47.913Z,6.35
2023-07-31T01:31:19.184Z,6.80
2023-07-31T01:33:47.016Z,8.63
2023-07-31T01:36:13.937Z,8.38
2023-07-31T01:38:40.523Z,9.43
2023-07-31T01:41:08.443Z,9.25
2023-07-31T01:43:35.028Z,11.10
2023-07-31T01:46:01.623Z,11.65
2023-07-31T01:48:28.173Z,13.18
2023-07-31T01:50:54.735Z,10.77
2023-07-31T01:53:21.290Z,8.75
2023-07-31T01:55:47.832Z,13.90
2023-07-31T01:58:15.859Z,12.13
2023-07-31T02:00:42.456Z,10.00
2023-07-31T02:03:09.115Z,8.60
2023-07-31T02:05:35.951Z,10.15
2023-07-31T02:08:04.032Z,8.55
2023-07-31T02:10:32.063Z,10.27
2023-07-31T02:12:58.592Z,9.75
2023-07-31T02:15:26.472Z,10.85
2023-07-31T02:17:53.066Z,6.38
2023-07-31T02:20:19.631Z,15.32
2023-07-31T02:22:46.196Z,12.02
2023-07-31T02:25:12.858Z,11.63
2023-07-31T02:27:39.377Z,14.73
2023-07-31T02:30:06.979Z,7.28
2023-07-31T02:32:34.909Z,10.60
2023-07-31T02:35:01.669Z,11.13
2023-07-31T02:37:28.246Z,13.60
2023-07-31T02:39:54.759Z,7.55
2023-07-31T02:42:21.301Z,7.80
2023-07-31T02:44:47.834Z,11.25
2023-07-31T02:47:14.378Z,10.55
2023-07-31T02:49:42.440Z,10.50
2023-07-31T02:52:08.993Z,11.68
2023-07-31T02:54:35.589Z,9.75
2023-07-31T02:57:02.122Z,7.72
2023-07-31T02:59:29.386Z,10.40
2023-07-31T03:01:55.979Z,11.25
2023-07-31T03:04:22.581Z,8.57
2023-07-31T03:06:50.525Z,7.20
2023-07-31T03:09:17.190Z,9.15
2023-07-31T03:11:43.736Z,10.93
2023-07-31T03:14:10.305Z,10.68
2023-07-31T03:16:36.998Z,7.15
2023-07-31T03:19:03.897Z,11.43
2023-07-31T03:21:30.502Z,13.15
2023-07-31T03:23:58.382Z,12.55
2023-07-31T03:26:24.943Z,9.30
2023-07-31T03:28:51.746Z,13.13
2023-07-31T03:31:18.382Z,11.90
2023-07-31T03:33:44.903Z,8.80
2023-07-31T03:36:11.572Z,12.07
2023-07-31T03:38:38.161Z,11.15
2023-07-31T03:41:06.138Z,10.65
2023-07-31T03:43:32.758Z,10.60
2023-07-31T03:45:59.337Z,15.10
2023-07-31T03:48:25.950Z,17.15
2023-07-31T03:50:52.719Z,9.25
2023-07-31T03:53:19.234Z,10.30
2023-07-31T03:55:45.777Z,13.00
2023-07-31T03:58:13.714Z,6.53
2023-07-31T04:00:41.369Z,7.93
2023-07-31T04:03:08.106Z,8.80
2023-07-31T04:05:38.739Z,10.45
2023-07-31T04:08:05.419Z,6.72
2023-07-31T04:10:31.968Z,7.13
2023-07-31T04:12:58.473Z,7.75
2023-07-31T04:15:26.399Z,10.02
2023-07-31T04:17:53.100Z,8.30
2023-07-31T04:20:19.780Z,10.77
2023-07-31T04:22:46.338Z,11.80
2023-07-31T04:25:12.944Z,8.18
2023-07-31T04:27:40.575Z,7.70
2023-07-31T04:30:08.253Z,8.27
2023-07-31T04:32:36.112Z,9.85
2023-07-31T04:35:02.725Z,8.40
2023-07-31T04:37:29.313Z,9.48
2023-07-31T04:39:55.870Z,9.88
2023-07-31T04:42:22.484Z,9.05
2023-07-31T04:44:49.021Z,10.27
2023-07-31T04:47:15.695Z,8.38
2023-07-31T04:49:43.590Z,11.98
2023-07-31T04:52:10.253Z,7.65
2023-07-31T04:54:36.830Z,10.43
2023-07-31T04:57:03.700Z,10.95
2023-07-31T04:59:30.328Z,7.40
2023-07-31T05:01:56.951Z,10.98
2023-07-31T05:04:23.616Z,7.75
2023-07-31T05:06:51.483Z,8.05
2023-07-31T05:09:18.028Z,11.38
2023-07-31T05:11:44.601Z,7.30
2023-07-31T05:14:11.188Z,9.52
2023-07-31T05:16:38.201Z,6.82
2023-07-31T05:19:05.086Z,6.60
2023-07-31T05:21:31.659Z,6.85
2023-07-31T05:23:59.970Z,8.30
2023-07-31T05:26:26.574Z,5.55
2023-07-31T05:28:53.085Z,6.97
2023-07-31T05:31:19.613Z,7.45
2023-07-31T05:33:46.477Z,7.60
2023-07-31T05:36:12.998Z,7.28
2023-07-31T05:38:41.048Z,5.97
2023-07-31T05:41:12.190Z,6.22
2023-07-31T05:43:38.735Z,7.00
2023-07-31T05:46:06.767Z,5.63
2023-07-31T05:48:33.861Z,5.85
2023-07-31T05:51:00.459Z,6.28
2023-07-31T05:53:27.061Z,7.68
2023-07-31T05:55:53.586Z,5.45
2023-07-31T05:58:22.189Z,8.68
2023-07-31T06:00:48.742Z,6.80
2023-07-31T06:03:15.577Z,9.45
2023-07-31T06:05:42.150Z,8.77
2023-07-31T06:08:08.705Z,6.40
2023-07-31T06:10:35.248Z,9.00
2023-07-31T06:13:01.779Z,6.88
2023-07-31T06:15:29.666Z,4.82
2023-07-31T06:17:56.350Z,7.40
2023-07-31T06:20:23.197Z,5.15
2023-07-31T06:22:49.896Z,6.45
2023-07-31T06:25:16.475Z,4.82
2023-07-31T06:27:43.060Z,6.90
2023-07-31T06:30:10.187Z,7.20
2023-07-31T06:32:38.057Z,6.90
2023-07-31T06:35:05.364Z,8.25
2023-07-31T06:37:31.977Z,6.93
2023-07-31T06:39:58.522Z,6.32
2023-07-31T06:42:25.170Z,6.95
2023-07-31T06:44:51.715Z,7.07
2023-07-31T06:47:18.250Z,8.32
2023-07-31T06:49:46.151Z,5.93
2023-07-31T06:52:12.704Z,6.85
2023-07-31T06:54:39.252Z,6.13
2023-07-31T06:57:06.029Z,5.50
2023-07-31T06:59:32.566Z,6.60
2023-07-31T07:01:59.095Z,4.53
2023-07-31T07:04:25.668Z,4.95
2023-07-31T07:06:53.535Z,5.28
2023-07-31T07:09:20.077Z,9.90
2023-07-31T07:11:46.625Z,6.97
2023-07-31T07:14:13.198Z,3.90
2023-07-31T07:16:40.096Z,4.97
2023-07-31T07:19:06.822Z,6.53
2023-07-31T07:21:33.447Z,4.72
2023-07-31T07:24:01.300Z,5.63
2023-07-31T07:26:27.889Z,6.13
2023-07-31T07:28:54.417Z,4.40
2023-07-31T07:31:21.026Z,6.18
2023-07-31T07:33:47.746Z,5.00
2023-07-31T07:36:14.288Z,3.63
2023-07-31T07:38:40.830Z,3.70
2023-07-31T07:41:08.824Z,3.88
2023-07-31T07:43:35.395Z,6.85
2023-07-31T07:46:02.012Z,5.30
2023-07-31T07:48:28.675Z,3.72
2023-07-31T07:50:55.194Z,3.92
2023-07-31T07:53:21.721Z,3.00
2023-07-31T07:55:48.319Z,3.78
2023-07-31T07:58:16.200Z,3.75
2023-07-31T08:00:42.815Z,5.78
2023-07-31T08:03:09.472Z,4.97
2023-07-31T08:05:36.087Z,4.53
2023-07-31T08:08:02.635Z,6.28
2023-07-31T08:10:29.198Z,4.78
2023-07-31T08:12:55.742Z,4.78
2023-07-31T08:15:23.617Z,5.60
2023-07-31T08:17:50.235Z,8.95
2023-07-31T08:20:16.776Z,4.80
2023-07-31T08:22:43.348Z,4.57
2023-07-31T08:25:09.914Z,5.47
2023-07-31T08:27:36.500Z,5.05
2023-07-31T08:30:03.398Z,6.70
2023-07-31T08:32:31.404Z,4.35
2023-07-31T08:34:57.984Z,4.38
2023-07-31T08:37:24.536Z,4.93
2023-07-31T08:39:51.193Z,4.40
2023-07-31T08:42:17.781Z,4.05
2023-07-31T08:44:44.769Z,4.88
2023-07-31T08:47:11.880Z,5.00
2023-07-31T08:49:41.794Z,6.47
2023-07-31T08:52:08.526Z,4.03
2023-07-31T08:54:35.073Z,3.47
2023-07-31T08:57:01.881Z,5.28
2023-07-31T08:59:31.626Z,5.60
2023-07-31T09:02:04.544Z,3.67
2023-07-31T09:04:32.161Z,6.28
2023-07-31T09:07:02.121Z,7.10
2023-07-31T09:09:28.774Z,4.95
2023-07-31T09:11:56.707Z,5.72
2023-07-31T09:14:25.448Z,6.13
2023-07-31T09:16:56.053Z,6.97
2023-07-31T09:19:30.947Z,5.68
2023-07-31T09:21:57.829Z,6.32
2023-07-31T09:24:29.770Z,9.48
2023-07-31T09:26:56.929Z,7.60
2023-07-31T09:29:24.036Z,5.15
2023-07-31T09:31:51.681Z,5.60
2023-07-31T09:34:18.300Z,7.72
2023-07-31T09:36:46.721Z,4.93
2023-07-31T09:39:14.285Z,5.00
2023-07-31T09:41:43.822Z,4.78
2023-07-31T09:44:10.415Z,6.53
2023-07-31T09:46:37.436Z,5.07
2023-07-31T09:49:08.981Z,7.07
2023-07-31T09:51:35.826Z,5.82
2023-07-31T09:54:02.348Z,6.68
2023-07-31T09:56:28.925Z,6.75
2023-07-31T09:58:57.333Z,6.55
2023-07-31T10:01:23.940Z,4.85
2023-07-31T10:03:51.043Z,8.50
2023-07-31T10:06:18.522Z,4.15
2023-07-31T10:08:48.637Z,5.97
2023-07-31T10:11:16.664Z,5.47
2023-07-31T10:13:43.977Z,7.55
2023-07-31T10:16:13.252Z,5.32
2023-07-31T10:18:41.243Z,7.30
2023-07-31T10:21:08.418Z,5.10
2023-07-31T10:23:35.057Z,5.35
2023-07-31T10:26:03.349Z,5.63
2023-07-31T10:28:30.856Z,4.38
2023-07-31T10:30:57.585Z,5.90
2023-07-31T10:33:26.203Z,6.95
2023-07-31T10:36:13.430Z,4.72
2023-07-31T10:38:40.032Z,5.88
2023-07-31T10:41:09.525Z,4.38
2023-07-31T10:43:37.707Z,4.18
2023-07-31T10:46:07.915Z,3.30
2023-07-31T10:48:36.090Z,6.20
2023-07-31T10:51:08.364Z,4.45
2023-07-31T10:53:34.937Z,5.10
2023-07-31T10:56:02.263Z,4.38
2023-07-31T10:58:28.978Z,3.75
2023-07-31T11:00:57.530Z,3.80
2023-07-31T11:03:27.242Z,4.18
2023-07-31T11:06:01.528Z,3.17
2023-07-31T11:08:30.087Z,4.32
2023-07-31T11:11:07.477Z,5.07
2023-07-31T11:13:40.231Z,4.28
2023-07-31T11:16:06.895Z,3.70
2023-07-31T11:18:33.582Z,2.75
2023-07-31T11:21:01.504Z,6.00
2023-07-31T11:23:28.059Z,3.38
2023-07-31T11:26:00.504Z,3.35
2023-07-31T11:28:27.130Z,3.60
2023-07-31T11:30:56.892Z,4.85
2023-07-31T11:33:23.533Z,4.13
2023-07-31T11:35:50.221Z,4.45
2023-07-31T11:38:23.981Z,3.67
2023-07-31T11:40:50.991Z,3.88
2023-07-31T11:43:19.578Z,4.80
2023-07-31T11:45:48.654Z,4.57
2023-07-31T11:48:20.384Z,3.83
2023-07-31T11:50:47.002Z,4.40
2023-07-31T11:53:14.636Z,3.92
2023-07-31T11:55:43.005Z,3.15
2023-07-31T11:58:10.386Z,5.28
2023-07-31T12:00:37.178Z,2.90
2023-07-31T12:03:04.104Z,4.43
2023-07-31T12:05:31.157Z,3.75
2023-07-31T12:07:57.670Z,6.43
2023-07-31T12:10:28.889Z,4.68
2023-07-31T12:13:01.810Z,8.40
2023-07-31T12:15:38.518Z,4.63
2023-07-31T12:18:06.807Z,4.28
2023-07-31T12:20:33.803Z,6.35
2023-07-31T12:23:00.461Z,5.03
2023-07-31T12:25:33.620Z,5.93
2023-07-31T12:28:07.360Z,7.03
2023-07-31T12:30:35.067Z,4.22
2023-07-31T12:33:04.743Z,4.32
2023-07-31T12:35:36.379Z,5.57
2023-07-31T12:38:03.038Z,4.53
2023-07-31T12:40:33.206Z,3.85
2023-07-31T12:43:02.564Z,8.18
2023-07-31T12:45:30.955Z,7.15
2023-07-31T12:47:57.851Z,9.48
2023-07-31T12:50:24.490Z,6.15
2023-07-31T12:52:52.158Z,6.32
2023-07-31T12:55:18.685Z,5.75
2023-07-31T12:57:45.452Z,7.35
2023-07-31T13:00:13.625Z,5.47
2023-07-31T13:02:41.678Z,4.88
2023-07-31T13:05:08.576Z,7.18
2023-07-31T13:07:35.331Z,6.03
2023-07-31T13:10:01.921Z,6.82
2023-07-31T13:12:28.467Z,7.40
2023-07-31T13:14:55.076Z,6.50
2023-07-31T13:17:21.651Z,7.75
2023-07-31T13:19:49.540Z,8.02
2023-07-31T13:22:16.162Z,7.80
2023-07-31T13:24:42.705Z,7.70
2023-07-31T13:27:09.294Z,7.57
2023-07-31T13:29:35.823Z,6.30
2023-07-31T13:32:02.451Z,4.68
2023-07-31T13:34:29.013Z,6.63
2023-07-31T13:36:56.945Z,5.38
2023-07-31T13:39:23.502Z,9.07
2023-07-31T13:41:50.058Z,8.43
2023-07-31T13:44:16.621Z,8.25
2023-07-31T13:46:43.348Z,5.03
2023-07-31T13:49:10.341Z,7.80
2023-07-31T13:51:36.932Z,5.28
2023-07-31T13:54:05.152Z,7.85
2023-07-31T13:56:31.677Z,7.15
2023-07-31T13:58:58.240Z,7.18
2023-07-31T14:01:24.827Z,8.75
2023-07-31T14:03:51.482Z,5.45
2023-07-31T14:06:18.077Z,6.70
2023-07-31T14:08:44.637Z,6.95
2023-07-31T14:11:12.525Z,9.45
2023-07-31T14:13:39.124Z,9.40
2023-07-31T14:16:05.762Z,4.65
2023-07-31T14:18:32.606Z,10.98
2023-07-31T14:20:59.490Z,5.43
2023-07-31T14:23:26.068Z,7.90
2023-07-31T14:25:52.643Z,8.50
2023-07-31T14:28:20.577Z,6.53
2023-07-31T14:30:47.356Z,6.30
2023-07-31T14:33:13.936Z,9.05
2023-07-31T14:35:40.464Z,10.15
2023-07-31T14:38:06.989Z,8.77
2023-07-31T14:40:33.537Z,6.38
2023-07-31T14:43:00.068Z,6.40
2023-07-31T14:45:28.058Z,8.68
2023-07-31T14:47:54.680Z,9.45
2023-07-31T14:50:21.464Z,9.82
2023-07-31T14:52:48.352Z,7.45
2023-07-31T14:55:15.195Z,7.57
2023-07-31T14:57:41.758Z,8.23
2023-07-31T15:00:09.465Z,7.82
2023-07-31T15:02:37.984Z,6.53
2023-07-31T15:05:05.829Z,8.80
2023-07-31T15:07:33.078Z,14.43
2023-07-31T15:09:59.661Z,9.32
2023-07-31T15:12:27.533Z,9.73
2023-07-31T15:14:54.502Z,7.07
2023-07-31T15:17:21.209Z,8.38
2023-07-31T15:19:49.111Z,6.25
2023-07-31T15:22:15.750Z,7.95
2023-07-31T15:24:42.342Z,6.57
2023-07-31T15:27:08.985Z,5.45
2023-07-31T15:29:35.717Z,5.78
2023-07-31T15:32:02.655Z,7.85
2023-07-31T15:34:29.936Z,6.63
2023-07-31T15:36:58.012Z,4.60
2023-07-31T15:39:24.622Z,6.55
2023-07-31T15:41:51.237Z,8.13
2023-07-31T15:44:17.844Z,9.10
2023-07-31T15:46:44.390Z,6.38
2023-07-31T15:49:11.356Z,6.28
2023-07-31T15:51:37.970Z,4.28
2023-07-31T15:54:05.894Z,6.03
2023-07-31T15:56:32.488Z,3.97
2023-07-31T15:58:59.051Z,3.58
2023-07-31T16:01:25.721Z,5.60
2023-07-31T16:03:52.447Z,4.10
2023-07-31T16:06:19.063Z,4.18
2023-07-31T16:08:45.654Z,1.83
2023-07-31T16:11:13.568Z,3.75
2023-07-31T16:13:40.114Z,3.78
2023-07-31T16:16:06.715Z,3.97
2023-07-31T16:18:33.277Z,3.45
2023-07-31T16:20:59.884Z,4.10
2023-07-31T16:23:26.464Z,3.38
2023-07-31T16:25:53.028Z,1.88
2023-07-31T16:28:20.984Z,5.70
2023-07-31T16:30:47.686Z,3.65
2023-07-31T16:33:14.334Z,2.00
2023-07-31T16:35:40.935Z,1.80
2023-07-31T16:38:07.523Z,1.85
2023-07-31T16:40:34.096Z,1.50
2023-07-31T16:43:00.618Z,2.95
2023-07-31T16:45:28.522Z,2.55
2023-07-31T16:47:55.115Z,3.13
2023-07-31T16:50:24.087Z,1.63
2023-07-31T16:52:50.960Z,6.22
2023-07-31T16:55:17.494Z,2.42
2023-07-31T16:57:44.038Z,1.48
2023-07-31T17:00:11.884Z,2.08
2023-07-31T17:02:40.154Z,1.50
2023-07-31T17:05:08.268Z,1.13
2023-07-31T17:07:34.802Z,1.05
2023-07-31T17:10:01.315Z,2.35
2023-07-31T17:12:27.921Z,1.20
2023-07-31T17:14:54.459Z,1.15
2023-07-31T17:17:21.032Z,1.60
2023-07-31T17:19:49.063Z,2.25
2023-07-31T17:22:15.698Z,1.13
2023-07-31T17:24:42.387Z,3.35
2023-07-31T17:27:08.929Z,4.10
2023-07-31T17:29:35.534Z,2.30
2023-07-31T17:32:02.133Z,3.65
2023-07-31T17:34:28.686Z,1.02
2023-07-31T17:36:56.650Z,1.50
2023-07-31T17:39:23.236Z,1.23
2023-07-31T17:41:49.824Z,1.90
2023-07-31T17:44:16.388Z,1.02
2023-07-31T17:46:43.246Z,2.38
2023-07-31T17:49:09.967Z,1.23
2023-07-31T17:51:36.510Z,1.30
2023-07-31T17:54:04.361Z,1.35
2023-07-31T17:56:30.918Z,2.47
2023-07-31T17:58:57.505Z,1.20
2023-07-31T18:01:24.131Z,1.23
2023-07-31T18:03:50.781Z,1.65
2023-07-31T18:06:17.415Z,2.25
2023-07-31T18:08:43.984Z,3.00
2023-07-31T18:11:11.855Z,1.52
2023-07-31T18:13:38.412Z,1.85
2023-07-31T18:16:05.601Z,1.90
2023-07-31T18:18:32.529Z,4.72
2023-07-31T18:20:59.103Z,4.43
2023-07-31T18:23:25.709Z,4.13
2023-07-31T18:25:52.308Z,3.15
2023-07-31T18:28:20.230Z,2.65
2023-07-31T18:30:47.047Z,1.77
2023-07-31T18:33:13.671Z,1.63
2023-07-31T18:35:40.238Z,1.63
2023-07-31T18:38:06.853Z,2.15
2023-07-31T18:40:34.552Z,1.10
2023-07-31T18:43:01.181Z,1.77
2023-07-31T18:45:29.057Z,3.85
2023-07-31T18:47:55.629Z,1.42
2023-07-31T18:50:22.234Z,2.50
2023-07-31T18:52:48.899Z,3.45
2023-07-31T18:55:15.626Z,1.58
2023-07-31T18:57:42.192Z,1.83
2023-07-31T19:00:09.898Z,2.63
2023-07-31T19:02:37.874Z,1.50
2023-07-31T19:05:05.078Z,2.13
2023-07-31T19:07:31.654Z,1.67
2023-07-31T19:10:08.769Z,1.90
2023-07-31T19:12:40.644Z,4.13
2023-07-31T19:15:07.943Z,2.60
2023-07-31T19:17:34.498Z,2.50
2023-07-31T19:20:02.399Z,2.88
2023-07-31T19:22:28.917Z,3.58
2023-07-31T19:24:55.429Z,1.92
2023-07-31T19:27:22.073Z,3.38
2023-07-31T19:29:48.658Z,2.42
2023-07-31T19:32:15.209Z,1.38
2023-07-31T19:34:41.890Z,3.55
2023-07-31T19:37:10.804Z,1.60
2023-07-31T19:39:38.468Z,1.42
2023-07-31T19:42:05.570Z,1.88
2023-07-31T19:44:32.125Z,4.57
2023-07-31T19:46:58.651Z,2.55
2023-07-31T19:49:26.489Z,3.90
2023-07-31T19:51:53.019Z,2.13
2023-07-31T19:54:20.878Z,2.22
2023-07-31T19:56:47.448Z,3.22
2023-07-31T19:59:13.991Z,1.50
2023-07-31T20:01:40.591Z,1.85
2023-07-31T20:04:07.254Z,1.45
2023-07-31T20:06:33.820Z,2.22
2023-07-31T20:09:00.337Z,1.38
2023-07-31T20:11:28.201Z,2.03
2023-07-31T20:13:54.721Z,5.45
2023-07-31T20:16:21.270Z,2.25
2023-07-31T20:18:47.846Z,2.42
2023-07-31T20:21:14.409Z,2.55
2023-07-31T20:23:43.528Z,1.35
2023-07-31T20:26:10.768Z,1.08
2023-07-31T20:28:38.721Z,1.23
2023-07-31T20:31:05.509Z,3.22
2023-07-31T20:33:32.245Z,1.58
2023-07-31T20:35:58.813Z,1.58
2023-07-31T20:38:25.355Z,1.10
2023-07-31T20:40:51.939Z,1.15
2023-07-31T20:43:18.493Z,1.40
2023-07-31T20:45:46.561Z,3.03
2023-07-31T20:48:13.227Z,2.33
2023-07-31T20:50:39.814Z,1.75
2023-07-31T20:53:06.352Z,2.17
2023-07-31T20:55:33.081Z,3.00
2023-07-31T20:57:59.622Z,1.98
2023-07-31T21:00:26.185Z,2.22
2023-07-31T21:02:54.138Z,3.80
2023-07-31T21:05:20.755Z,3.30
2023-07-31T21:07:47.310Z,1.88
2023-07-31T21:10:13.918Z,1.35
2023-07-31T21:12:40.514Z,2.10
2023-07-31T21:15:08.602Z,2.42
2023-07-31T21:17:35.205Z,2.85
2023-07-31T21:20:04.020Z,3.17
2023-07-31T21:22:31.378Z,2.03
2023-07-31T21:24:58.003Z,3.05
2023-07-31T21:27:24.573Z,1.80
2023-07-31T21:29:51.102Z,2.42
2023-07-31T21:32:17.639Z,2.05
2023-07-31T21:34:44.225Z,2.13
2023-07-31T21:37:12.203Z,3.60
2023-07-31T21:39:38.961Z,1.75
2023-07-31T21:42:06.145Z,2.92
2023-07-31T21:44:32.713Z,4.63
2023-07-31T21:46:59.386Z,1.45
2023-07-31T21:49:26.057Z,2.42
2023-07-31T21:51:52.602Z,4.30
2023-07-31T21:54:20.509Z,1.65
2023-07-31T21:56:47.071Z,1.42
2023-07-31T21:59:13.802Z,3.05
2023-07-31T22:01:40.331Z,1.40
2023-07-31T22:04:06.880Z,2.08
2023-07-31T22:06:33.434Z,1.55
2023-07-31T22:08:59.942Z,2.00
2023-07-31T22:11:27.837Z,2.60
2023-07-31T22:13:54.358Z,2.33
2023-07-31T22:16:20.983Z,2.67
2023-07-31T22:18:47.530Z,1.63
2023-07-31T22:21:14.045Z,1.88
2023-07-31T22:23:40.625Z,2.28
2023-07-31T22:26:07.197Z,2.53
2023-07-31T22:28:35.100Z,2.60
2023-07-31T22:31:01.742Z,2.08
2023-07-31T22:33:28.270Z,3.25
2023-07-31T22:35:54.809Z,3.17
2023-07-31T22:38:21.398Z,1.77
2023-07-31T22:40:47.908Z,2.10
2023-07-31T22:43:14.437Z,2.70
2023-07-31T22:45:46.600Z,3.00
2023-07-31T22:48:13.259Z,2.15
2023-07-31T22:50:39.863Z,1.75
2023-07-31T22:53:06.816Z,2.10
2023-07-31T22:55:33.364Z,2.47
2023-07-31T22:57:59.888Z,1.83
2023-07-31T23:00:26.478Z,2.17
2023-07-31T23:02:54.401Z,2.45
2023-07-31T23:05:21.043Z,1.92
2023-07-31T23:07:47.626Z,2.95
2023-07-31T23:10:14.155Z,2.10
2023-07-31T23:12:40.738Z,1.75
2023-07-31T23:15:08.467Z,2.53
2023-07-31T23:17:35.261Z,1.75
2023-07-31T23:20:03.499Z,3.08
2023-07-31T23:22:31.063Z,4.53
2023-07-31T23:24:57.673Z,1.73
2023-07-31T23:27:24.265Z,2.28
2023-07-31T23:29:50.848Z,0.80
2023-07-31T23:32:17.445Z,1.05
2023-07-31T23:34:44.071Z,1.67
2023-07-31T23:37:11.966Z,1.95
2023-07-31T23:39:38.508Z,5.43
2023-07-31T23:42:05.516Z,2.63
2023-07-31T23:44:32.205Z,2.00
2023-07-31T23:46:58.769Z,1.73
2023-07-31T23:49:25.280Z,0.80
2023-07-31T23:51:51.872Z,2.58
2023-07-31T23:54:19.921Z,4.57
2023-07-31T23:56:46.487Z,2.50
2023-07-31T23:59:13.070Z,1.40
